sensor_id;sensor_type;location;lat;lon;timestamp;pressure;altitude;pressure_sealevel;temperature;humidity
60417;BME280;46263;44.726;10.396;2023-06-14T00:00:13;99961.94;;;21.77;69.86
60417;BME280;46263;44.726;10.396;2023-06-14T00:02:39;99966.75;;;21.74;70.43
60417;BME280;46263;44.726;10.396;2023-06-14T00:05:05;99964.25;;;21.69;70.68
60417;BME280;46263;44.726;10.396;2023-06-14T00:07:36;99964.84;;;21.67;70.57
60417;BME280;46263;44.726;10.396;2023-06-14T00:10:03;99970.56;;;21.67;70.74
60417;BME280;46263;44.726;10.396;2023-06-14T00:12:30;99967.56;;;21.66;70.44
60417;BME280;46263;44.726;10.396;2023-06-14T00:14:55;99963.84;;;21.63;71.00
60417;BME280;46263;44.726;10.396;2023-06-14T00:17:21;99968.03;;;21.62;70.73
60417;BME280;46263;44.726;10.396;2023-06-14T00:19:46;99968.50;;;21.59;70.25
60417;BME280;46263;44.726;10.396;2023-06-14T00:22:12;99965.25;;;21.53;70.65
60417;BME280;46263;44.726;10.396;2023-06-14T00:24:37;99966.19;;;21.46;70.84
60417;BME280;46263;44.726;10.396;2023-06-14T00:27:03;99959.00;;;21.45;70.92
60417;BME280;46263;44.726;10.396;2023-06-14T00:29:29;99963.06;;;21.42;70.91
60417;BME280;46263;44.726;10.396;2023-06-14T00:31:54;99964.94;;;21.49;70.61
60417;BME280;46263;44.726;10.396;2023-06-14T00:34:19;99956.56;;;21.51;70.89
60417;BME280;46263;44.726;10.396;2023-06-14T00:36:45;99946.81;;;21.54;70.55
60417;BME280;46263;44.726;10.396;2023-06-14T00:39:10;99947.47;;;21.43;70.67
60417;BME280;46263;44.726;10.396;2023-06-14T00:41:37;99938.69;;;21.39;70.65
60417;BME280;46263;44.726;10.396;2023-06-14T00:44:02;99940.19;;;21.40;70.48
60417;BME280;46263;44.726;10.396;2023-06-14T00:46:28;99939.72;;;21.43;70.40
60417;BME280;46263;44.726;10.396;2023-06-14T00:48:55;99928.81;;;21.40;70.58
60417;BME280;46263;44.726;10.396;2023-06-14T00:51:21;99940.03;;;21.38;70.20
60417;BME280;46263;44.726;10.396;2023-06-14T00:53:47;99937.19;;;21.38;70.33
60417;BME280;46263;44.726;10.396;2023-06-14T00:56:14;99942.59;;;21.34;70.61
60417;BME280;46263;44.726;10.396;2023-06-14T00:58:40;99942.53;;;21.22;70.92
60417;BME280;46263;44.726;10.396;2023-06-14T01:01:06;99933.41;;;21.24;70.69
60417;BME280;46263;44.726;10.396;2023-06-14T01:03:32;99931.78;;;21.21;70.81
60417;BME280;46263;44.726;10.396;2023-06-14T01:09:08;99923.50;;;21.25;70.10
60417;BME280;46263;44.726;10.396;2023-06-14T01:11:47;99919.06;;;21.22;70.16
60417;BME280;46263;44.726;10.396;2023-06-14T01:14:16;99924.72;;;21.22;69.76
60417;BME280;46263;44.726;10.396;2023-06-14T01:16:43;99924.44;;;21.18;69.24
60417;BME280;46263;44.726;10.396;2023-06-14T01:19:11;99915.59;;;21.23;69.48
60417;BME280;46263;44.726;10.396;2023-06-14T01:21:39;99926.16;;;21.11;69.42
60417;BME280;46263;44.726;10.396;2023-06-14T01:24:08;99922.38;;;21.18;69.17
60417;BME280;46263;44.726;10.396;2023-06-14T01:26:35;99927.91;;;21.16;69.16
60417;BME280;46263;44.726;10.396;2023-06-14T01:29:03;99919.22;;;21.14;69.62
60417;BME280;46263;44.726;10.396;2023-06-14T01:31:29;99917.75;;;21.13;69.02
60417;BME280;46263;44.726;10.396;2023-06-14T01:34:05;99904.69;;;21.20;69.24
60417;BME280;46263;44.726;10.396;2023-06-14T01:36:30;99903.34;;;21.21;68.88
60417;BME280;46263;44.726;10.396;2023-06-14T01:38:56;99913.22;;;21.20;69.15
60417;BME280;46263;44.726;10.396;2023-06-14T01:41:24;99910.13;;;21.16;69.48
60417;BME280;46263;44.726;10.396;2023-06-14T01:43:50;99906.25;;;21.11;69.64
60417;BME280;46263;44.726;10.396;2023-06-14T01:46:17;99907.88;;;21.14;69.47
60417;BME280;46263;44.726;10.396;2023-06-14T01:48:43;99911.56;;;21.17;69.51
60417;BME280;46263;44.726;10.396;2023-06-14T01:51:08;99900.69;;;21.13;69.77
60417;BME280;46263;44.726;10.396;2023-06-14T01:53:34;99904.00;;;21.10;70.02
60417;BME280;46263;44.726;10.396;2023-06-14T01:55:59;99896.97;;;21.11;69.89
60417;BME280;46263;44.726;10.396;2023-06-14T01:58:26;99899.06;;;21.10;69.80
60417;BME280;46263;44.726;10.396;2023-06-14T02:00:52;99896.22;;;21.10;69.51
60417;BME280;46263;44.726;10.396;2023-06-14T02:03:20;99895.41;;;20.98;69.85
60417;BME280;46263;44.726;10.396;2023-06-14T02:05:47;99900.59;;;21.02;69.66
60417;BME280;46263;44.726;10.396;2023-06-14T02:08:12;99894.91;;;21.02;69.56
60417;BME280;46263;44.726;10.396;2023-06-14T02:10:37;99892.38;;;21.06;69.31
60417;BME280;46263;44.726;10.396;2023-06-14T02:13:03;99892.38;;;21.06;69.03
60417;BME280;46263;44.726;10.396;2023-06-14T02:15:28;99890.88;;;21.05;69.21
60417;BME280;46263;44.726;10.396;2023-06-14T02:17:59;99894.22;;;20.92;69.60
60417;BME280;46263;44.726;10.396;2023-06-14T02:20:25;99890.19;;;20.95;69.65
60417;BME280;46263;44.726;10.396;2023-06-14T02:22:50;99894.03;;;20.99;69.30
60417;BME280;46263;44.726;10.396;2023-06-14T02:25:16;99890.47;;;20.99;69.16
60417;BME280;46263;44.726;10.396;2023-06-14T02:27:41;99891.38;;;20.92;69.52
60417;BME280;46263;44.726;10.396;2023-06-14T02:30:07;99886.31;;;20.90;69.39
60417;BME280;46263;44.726;10.396;2023-06-14T02:32:33;99884.22;;;20.91;69.33
60417;BME280;46263;44.726;10.396;2023-06-14T02:35:01;99885.69;;;20.92;69.30
60417;BME280;46263;44.726;10.396;2023-06-14T02:37:27;99882.28;;;20.93;69.30
60417;BME280;46263;44.726;10.396;2023-06-14T02:39:52;99895.59;;;20.91;69.08
60417;BME280;46263;44.726;10.396;2023-06-14T02:42:18;99883.47;;;20.90;69.47
60417;BME280;46263;44.726;10.396;2023-06-14T02:44:43;99885.69;;;20.92;69.19
60417;BME280;46263;44.726;10.396;2023-06-14T02:47:10;99889.63;;;20.87;69.43
60417;BME280;46263;44.726;10.396;2023-06-14T02:49:35;99886.38;;;20.81;69.73
60417;BME280;46263;44.726;10.396;2023-06-14T02:52:01;99879.34;;;20.82;69.61
60417;BME280;46263;44.726;10.396;2023-06-14T02:54:27;99879.94;;;20.81;69.51
60417;BME280;46263;44.726;10.396;2023-06-14T02:56:53;99888.34;;;20.79;69.37
60417;BME280;46263;44.726;10.396;2023-06-14T02:59:18;99877.13;;;20.71;69.38
60417;BME280;46263;44.726;10.396;2023-06-14T03:01:44;99870.41;;;20.67;69.41
60417;BME280;46263;44.726;10.396;2023-06-14T03:04:10;99876.84;;;20.67;69.23
60417;BME280;46263;44.726;10.396;2023-06-14T03:06:36;99881.59;;;20.74;68.94
60417;BME280;46263;44.726;10.396;2023-06-14T03:09:02;99881.16;;;20.78;68.96
60417;BME280;46263;44.726;10.396;2023-06-14T03:11:32;99888.78;;;20.75;68.86
60417;BME280;46263;44.726;10.396;2023-06-14T03:13:57;99892.34;;;20.76;68.97
60417;BME280;46263;44.726;10.396;2023-06-14T03:16:23;99891.63;;;20.75;69.15
60417;BME280;46263;44.726;10.396;2023-06-14T03:18:52;99895.19;;;20.76;69.08
60417;BME280;46263;44.726;10.396;2023-06-14T03:21:19;99893.88;;;20.77;69.09
60417;BME280;46263;44.726;10.396;2023-06-14T03:23:45;99895.50;;;20.80;68.95
60417;BME280;46263;44.726;10.396;2023-06-14T03:26:11;99891.31;;;20.71;68.79
60417;BME280;46263;44.726;10.396;2023-06-14T03:28:41;99895.66;;;20.72;69.18
60417;BME280;46263;44.726;10.396;2023-06-14T03:31:07;99884.94;;;20.61;69.26
60417;BME280;46263;44.726;10.396;2023-06-14T03:33:34;99892.78;;;20.51;69.30
60417;BME280;46263;44.726;10.396;2023-06-14T03:35:59;99896.25;;;20.40;69.60
60417;BME280;46263;44.726;10.396;2023-06-14T03:38:25;99891.63;;;20.35;69.65
60417;BME280;46263;44.726;10.396;2023-06-14T03:40:50;99897.59;;;20.39;69.50
60417;BME280;46263;44.726;10.396;2023-06-14T03:43:16;99893.84;;;20.37;69.71
60417;BME280;46263;44.726;10.396;2023-06-14T03:45:41;99898.31;;;20.49;69.36
60417;BME280;46263;44.726;10.396;2023-06-14T03:48:07;99899.34;;;20.54;69.42
60417;BME280;46263;44.726;10.396;2023-06-14T03:50:34;99898.09;;;20.57;69.25
60417;BME280;46263;44.726;10.396;2023-06-14T03:52:59;99902.44;;;20.58;69.06
60417;BME280;46263;44.726;10.396;2023-06-14T03:55:26;99891.28;;;20.50;69.07
60417;BME280;46263;44.726;10.396;2023-06-14T03:57:52;99894.22;;;20.52;68.86
60417;BME280;46263;44.726;10.396;2023-06-14T04:00:18;99899.66;;;20.48;68.71
60417;BME280;46263;44.726;10.396;2023-06-14T04:02:44;99903.56;;;20.43;68.87
60417;BME280;46263;44.726;10.396;2023-06-14T04:05:10;99898.31;;;20.49;68.79
60417;BME280;46263;44.726;10.396;2023-06-14T04:07:36;99905.47;;;20.50;68.43
60417;BME280;46263;44.726;10.396;2023-06-14T04:10:13;99914.41;;;20.56;68.79
60417;BME280;46263;44.726;10.396;2023-06-14T04:12:39;99913.69;;;20.46;68.89
60417;BME280;46263;44.726;10.396;2023-06-14T04:15:05;99913.84;;;20.48;68.93
60417;BME280;46263;44.726;10.396;2023-06-14T04:17:32;99914.72;;;20.51;68.64
60417;BME280;46263;44.726;10.396;2023-06-14T04:20:02;99921.28;;;20.53;68.82
60417;BME280;46263;44.726;10.396;2023-06-14T04:22:29;99921.28;;;20.53;68.87
60417;BME280;46263;44.726;10.396;2023-06-14T04:24:55;99923.09;;;20.58;69.14
60417;BME280;46263;44.726;10.396;2023-06-14T04:27:22;99922.06;;;20.44;70.10
60417;BME280;46263;44.726;10.396;2023-06-14T04:29:54;99924.91;;;20.44;69.52
60417;BME280;46263;44.726;10.396;2023-06-14T04:32:25;99932.97;;;20.48;69.05
60417;BME280;46263;44.726;10.396;2023-06-14T04:34:57;99929.22;;;20.55;68.74
60417;BME280;46263;44.726;10.396;2023-06-14T04:37:24;99934.16;;;20.54;68.76
60417;BME280;46263;44.726;10.396;2023-06-14T04:39:54;99931.59;;;20.58;68.78
60417;BME280;46263;44.726;10.396;2023-06-14T04:42:21;99936.81;;;20.62;68.93
60417;BME280;46263;44.726;10.396;2023-06-14T04:44:50;99938.44;;;20.65;69.06
60417;BME280;46263;44.726;10.396;2023-06-14T04:47:17;99936.63;;;20.69;69.20
60417;BME280;46263;44.726;10.396;2023-06-14T04:49:42;99935.47;;;20.63;69.53
60417;BME280;46263;44.726;10.396;2023-06-14T04:52:08;99947.53;;;20.73;69.26
60417;BME280;46263;44.726;10.396;2023-06-14T04:54:36;99942.91;;;20.68;69.83
60417;BME280;46263;44.726;10.396;2023-06-14T04:57:04;99949.34;;;20.78;69.48
60417;BME280;46263;44.726;10.396;2023-06-14T04:59:30;99944.22;;;20.86;69.15
60417;BME280;46263;44.726;10.396;2023-06-14T05:01:58;99950.19;;;20.89;69.12
60417;BME280;46263;44.726;10.396;2023-06-14T05:04:25;99944.50;;;20.89;69.41
60417;BME280;46263;44.726;10.396;2023-06-14T05:06:52;99946.47;;;20.87;69.26
60417;BME280;46263;44.726;10.396;2023-06-14T05:09:19;99948.38;;;20.94;69.24
60417;BME280;46263;44.726;10.396;2023-06-14T05:11:45;99944.59;;;21.01;69.22
60417;BME280;46263;44.726;10.396;2023-06-14T05:14:13;99943.84;;;21.00;69.52
60417;BME280;46263;44.726;10.396;2023-06-14T05:16:39;99958.78;;;21.01;69.88
60417;BME280;46263;44.726;10.396;2023-06-14T05:19:05;99959.97;;;21.07;69.83
60417;BME280;46263;44.726;10.396;2023-06-14T05:21:31;99955.16;;;21.10;70.18
60417;BME280;46263;44.726;10.396;2023-06-14T05:24:00;99961.28;;;21.16;70.53
60417;BME280;46263;44.726;10.396;2023-06-14T05:26:26;99954.38;;;21.19;70.58
60417;BME280;46263;44.726;10.396;2023-06-14T05:28:58;99944.50;;;21.20;69.99
60417;BME280;46263;44.726;10.396;2023-06-14T05:31:25;99949.56;;;21.21;70.45
60417;BME280;46263;44.726;10.396;2023-06-14T05:33:52;99947.63;;;21.24;69.99
60417;BME280;46263;44.726;10.396;2023-06-14T05:36:17;99938.34;;;21.23;69.42
60417;BME280;46263;44.726;10.396;2023-06-14T05:38:43;99937.47;;;21.21;69.59
60417;BME280;46263;44.726;10.396;2023-06-14T05:41:08;99937.31;;;21.19;69.76
60417;BME280;46263;44.726;10.396;2023-06-14T05:43:34;99945.03;;;21.28;69.84
60417;BME280;46263;44.726;10.396;2023-06-14T05:45:59;99942.94;;;21.28;69.65
60417;BME280;46263;44.726;10.396;2023-06-14T05:48:25;99938.41;;;21.35;69.87
60417;BME280;46263;44.726;10.396;2023-06-14T05:50:50;99942.75;;;21.36;70.78
60417;BME280;46263;44.726;10.396;2023-06-14T05:53:16;99940.44;;;21.44;70.55
60417;BME280;46263;44.726;10.396;2023-06-14T05:55:41;99938.00;;;21.50;70.99
60417;BME280;46263;44.726;10.396;2023-06-14T05:58:06;99943.97;;;21.54;70.47
60417;BME280;46263;44.726;10.396;2023-06-14T06:00:32;99937.22;;;21.59;70.39
60417;BME280;46263;44.726;10.396;2023-06-14T06:02:57;99937.34;;;21.61;70.16
60417;BME280;46263;44.726;10.396;2023-06-14T06:05:23;99936.41;;;21.67;68.94
60417;BME280;46263;44.726;10.396;2023-06-14T06:07:49;99956.72;;;21.73;69.09
60417;BME280;46263;44.726;10.396;2023-06-14T06:10:14;99951.31;;;21.77;69.42
60417;BME280;46263;44.726;10.396;2023-06-14T06:12:41;99947.84;;;21.79;70.02
60417;BME280;46263;44.726;10.396;2023-06-14T06:15:08;99944.50;;;21.82;69.54
60417;BME280;46263;44.726;10.396;2023-06-14T06:17:38;99949.13;;;21.87;69.37
60417;BME280;46263;44.726;10.396;2023-06-14T06:20:04;99947.03;;;21.88;70.34
60417;BME280;46263;44.726;10.396;2023-06-14T06:22:33;99952.63;;;21.97;70.86
60417;BME280;46263;44.726;10.396;2023-06-14T06:24:59;99954.38;;;22.02;70.80
60417;BME280;46263;44.726;10.396;2023-06-14T06:27:24;99948.22;;;22.06;70.79
60417;BME280;46263;44.726;10.396;2023-06-14T06:29:49;99954.78;;;22.08;71.25
60417;BME280;46263;44.726;10.396;2023-06-14T06:32:17;99955.06;;;22.12;71.15
60417;BME280;46263;44.726;10.396;2023-06-14T06:34:42;99954.69;;;22.18;70.30
60417;BME280;46263;44.726;10.396;2023-06-14T06:37:08;99963.97;;;22.18;69.43
60417;BME280;46263;44.726;10.396;2023-06-14T06:39:33;99969.81;;;22.20;69.54
60417;BME280;46263;44.726;10.396;2023-06-14T06:41:59;99964.84;;;22.21;69.44
60417;BME280;46263;44.726;10.396;2023-06-14T06:44:24;99971.16;;;22.19;69.64
60417;BME280;46263;44.726;10.396;2023-06-14T06:46:50;99968.56;;;22.23;69.63
60417;BME280;46263;44.726;10.396;2023-06-14T06:49:15;99977.25;;;22.25;69.78
60417;BME280;46263;44.726;10.396;2023-06-14T06:51:41;99985.06;;;22.25;69.82
60417;BME280;46263;44.726;10.396;2023-06-14T06:54:08;99983.81;;;22.28;69.78
60417;BME280;46263;44.726;10.396;2023-06-14T06:56:34;99991.50;;;22.25;70.08
60417;BME280;46263;44.726;10.396;2023-06-14T06:59:00;99990.41;;;22.30;71.27
60417;BME280;46263;44.726;10.396;2023-06-14T07:01:25;99991.91;;;22.31;71.49
60417;BME280;46263;44.726;10.396;2023-06-14T07:03:51;99990.81;;;22.36;70.75
60417;BME280;46263;44.726;10.396;2023-06-14T07:06:17;99984.50;;;22.38;71.38
60417;BME280;46263;44.726;10.396;2023-06-14T07:08:44;99995.41;;;22.41;71.75
60417;BME280;46263;44.726;10.396;2023-06-14T07:11:09;99989.56;;;22.39;70.52
60417;BME280;46263;44.726;10.396;2023-06-14T07:13:35;99993.44;;;22.44;70.74
60417;BME280;46263;44.726;10.396;2023-06-14T07:16:01;99992.84;;;22.45;70.49
60417;BME280;46263;44.726;10.396;2023-06-14T07:18:27;99991.44;;;22.46;70.01
60417;BME280;46263;44.726;10.396;2023-06-14T07:20:53;99987.53;;;22.51;70.43
60417;BME280;46263;44.726;10.396;2023-06-14T07:23:20;99991.22;;;22.53;70.17
60417;BME280;46263;44.726;10.396;2023-06-14T07:25:46;99992.25;;;22.58;70.08
60417;BME280;46263;44.726;10.396;2023-06-14T07:28:11;99993.34;;;22.53;70.06
60417;BME280;46263;44.726;10.396;2023-06-14T07:30:37;99999.66;;;22.63;69.41
60417;BME280;46263;44.726;10.396;2023-06-14T07:33:02;100002.16;;;22.68;69.73
60417;BME280;46263;44.726;10.396;2023-06-14T07:35:28;100001.69;;;22.72;70.14
60417;BME280;46263;44.726;10.396;2023-06-14T07:37:53;100005.41;;;22.74;69.72
60417;BME280;46263;44.726;10.396;2023-06-14T07:40:19;100006.41;;;22.79;68.98
60417;BME280;46263;44.726;10.396;2023-06-14T07:42:44;100013.59;;;22.80;69.27
60417;BME280;46263;44.726;10.396;2023-06-14T07:45:13;100012.59;;;22.87;69.05
60417;BME280;46263;44.726;10.396;2023-06-14T07:47:38;100016.47;;;22.91;68.26
60417;BME280;46263;44.726;10.396;2023-06-14T07:50:04;100014.59;;;22.96;68.92
60417;BME280;46263;44.726;10.396;2023-06-14T07:52:30;100021.56;;;22.93;68.23
60417;BME280;46263;44.726;10.396;2023-06-14T07:54:56;100020.19;;;22.94;68.48
60417;BME280;46263;44.726;10.396;2023-06-14T07:57:22;100023.56;;;23.02;68.34
60417;BME280;46263;44.726;10.396;2023-06-14T07:59:47;100019.63;;;23.07;68.18
60417;BME280;46263;44.726;10.396;2023-06-14T08:02:14;100019.84;;;23.11;68.05
60417;BME280;46263;44.726;10.396;2023-06-14T08:04:39;100018.38;;;23.10;67.26
60417;BME280;46263;44.726;10.396;2023-06-14T08:07:05;100020.09;;;23.03;68.00
60417;BME280;46263;44.726;10.396;2023-06-14T08:09:31;100016.41;;;23.12;68.17
60417;BME280;46263;44.726;10.396;2023-06-14T08:11:56;100029.78;;;23.21;68.09
60417;BME280;46263;44.726;10.396;2023-06-14T08:14:22;100032.25;;;23.27;67.62
60417;BME280;46263;44.726;10.396;2023-06-14T08:16:48;100025.31;;;23.30;67.06
60417;BME280;46263;44.726;10.396;2023-06-14T08:19:13;100034.13;;;23.33;67.88
60417;BME280;46263;44.726;10.396;2023-06-14T08:21:39;100035.38;;;23.31;68.89
60417;BME280;46263;44.726;10.396;2023-06-14T08:24:05;100033.50;;;23.24;68.30
60417;BME280;46263;44.726;10.396;2023-06-14T08:26:30;100035.00;;;23.25;69.07
60417;BME280;46263;44.726;10.396;2023-06-14T08:28:57;100037.50;;;23.41;68.60
60417;BME280;46263;44.726;10.396;2023-06-14T08:31:23;100035.00;;;23.47;69.16
60417;BME280;46263;44.726;10.396;2023-06-14T08:33:50;100036.97;;;23.56;68.81
60417;BME280;46263;44.726;10.396;2023-06-14T08:36:15;100034.47;;;23.62;69.09
60417;BME280;46263;44.726;10.396;2023-06-14T08:38:41;100042.16;;;23.71;68.95
60417;BME280;46263;44.726;10.396;2023-06-14T08:41:06;100036.09;;;23.77;68.86
60417;BME280;46263;44.726;10.396;2023-06-14T08:43:33;100039.81;;;23.79;66.94
60417;BME280;46263;44.726;10.396;2023-06-14T08:46:00;100046.66;;;23.86;67.52
60417;BME280;46263;44.726;10.396;2023-06-14T08:48:27;100045.38;;;23.89;66.88
60417;BME280;46263;44.726;10.396;2023-06-14T08:50:55;100051.22;;;23.91;65.88
60417;BME280;46263;44.726;10.396;2023-06-14T08:53:28;100053.56;;;23.94;65.76
60417;BME280;46263;44.726;10.396;2023-06-14T08:56:00;100054.44;;;23.97;66.38
60417;BME280;46263;44.726;10.396;2023-06-14T08:58:33;100056.56;;;23.96;68.71
60417;BME280;46263;44.726;10.396;2023-06-14T09:01:03;100050.19;;;23.98;67.44
60417;BME280;46263;44.726;10.396;2023-06-14T09:03:29;100057.88;;;24.07;66.70
60417;BME280;46263;44.726;10.396;2023-06-14T09:05:59;100059.59;;;24.12;65.18
60417;BME280;46263;44.726;10.396;2023-06-14T09:08:26;100050.66;;;24.17;66.31
60417;BME280;46263;44.726;10.396;2023-06-14T09:10:56;100049.28;;;24.18;67.12
60417;BME280;46263;44.726;10.396;2023-06-14T09:13:22;100050.25;;;24.22;67.43
60417;BME280;46263;44.726;10.396;2023-06-14T09:15:47;100055.94;;;24.34;66.24
60417;BME280;46263;44.726;10.396;2023-06-14T09:18:13;100049.94;;;24.41;64.40
60417;BME280;46263;44.726;10.396;2023-06-14T09:20:39;100046.72;;;24.47;64.35
60417;BME280;46263;44.726;10.396;2023-06-14T09:23:05;100046.94;;;24.51;62.15
60417;BME280;46263;44.726;10.396;2023-06-14T09:25:32;100056.22;;;24.63;62.54
60417;BME280;46263;44.726;10.396;2023-06-14T09:27:58;100052.72;;;24.64;63.63
60417;BME280;46263;44.726;10.396;2023-06-14T09:30:23;100046.69;;;24.72;63.39
60417;BME280;46263;44.726;10.396;2023-06-14T09:32:49;100053.28;;;24.74;60.81
60417;BME280;46263;44.726;10.396;2023-06-14T09:35:17;100041.75;;;24.72;60.87
60417;BME280;46263;44.726;10.396;2023-06-14T09:37:43;100049.56;;;24.72;60.43
60417;BME280;46263;44.726;10.396;2023-06-14T09:40:08;100051.50;;;24.81;60.59
60417;BME280;46263;44.726;10.396;2023-06-14T09:42:35;100046.53;;;24.81;60.60
60417;BME280;46263;44.726;10.396;2023-06-14T09:45:02;100056.41;;;24.92;61.63
60417;BME280;46263;44.726;10.396;2023-06-14T09:47:28;100046.78;;;24.98;60.06
60417;BME280;46263;44.726;10.396;2023-06-14T09:49:54;100050.09;;;25.06;59.82
60417;BME280;46263;44.726;10.396;2023-06-14T09:52:21;100044.63;;;25.10;58.84
60417;BME280;46263;44.726;10.396;2023-06-14T09:54:48;100044.16;;;25.02;59.20
60417;BME280;46263;44.726;10.396;2023-06-14T09:57:21;100040.88;;;25.08;59.25
60417;BME280;46263;44.726;10.396;2023-06-14T09:59:48;100041.78;;;25.10;60.60
60417;BME280;46263;44.726;10.396;2023-06-14T10:02:31;100037.88;;;25.17;59.85
60417;BME280;46263;44.726;10.396;2023-06-14T10:05:06;100049.63;;;25.23;60.20
60417;BME280;46263;44.726;10.396;2023-06-14T10:07:48;100035.56;;;25.27;59.63
60417;BME280;46263;44.726;10.396;2023-06-14T10:10:15;100045.72;;;25.30;60.09
60417;BME280;46263;44.726;10.396;2023-06-14T10:12:40;100039.47;;;25.34;60.60
60417;BME280;46263;44.726;10.396;2023-06-14T10:15:09;100040.09;;;25.32;59.92
60417;BME280;46263;44.726;10.396;2023-06-14T10:17:50;100038.63;;;25.31;59.76
60417;BME280;46263;44.726;10.396;2023-06-14T10:22:59;100030.78;;;25.45;61.01
60417;BME280;46263;44.726;10.396;2023-06-14T10:25:31;100023.91;;;25.50;59.97
60417;BME280;46263;44.726;10.396;2023-06-14T10:28:32;100027.06;;;25.56;59.73
60417;BME280;46263;44.726;10.396;2023-06-14T10:31:02;100019.13;;;25.55;60.80
60417;BME280;46263;44.726;10.396;2023-06-14T10:33:35;100016.78;;;25.65;58.66
60417;BME280;46263;44.726;10.396;2023-06-14T10:36:24;100019.00;;;25.66;60.24
60417;BME280;46263;44.726;10.396;2023-06-14T10:41:37;100015.38;;;25.66;56.78
60417;BME280;46263;44.726;10.396;2023-06-14T10:46:41;100012.88;;;25.72;57.10
60417;BME280;46263;44.726;10.396;2023-06-14T10:49:11;100007.34;;;25.76;57.96
60417;BME280;46263;44.726;10.396;2023-06-14T10:51:42;100008.59;;;25.86;58.29
60417;BME280;46263;44.726;10.396;2023-06-14T10:54:15;100010.84;;;25.87;54.61
60417;BME280;46263;44.726;10.396;2023-06-14T10:56:51;100004.66;;;25.93;57.27
60417;BME280;46263;44.726;10.396;2023-06-14T10:59:18;100006.25;;;25.96;57.31
60417;BME280;46263;44.726;10.396;2023-06-14T11:04:50;99999.84;;;26.11;56.50
60417;BME280;46263;44.726;10.396;2023-06-14T11:07:48;99994.75;;;26.23;56.05
60417;BME280;46263;44.726;10.396;2023-06-14T11:10:36;100000.88;;;26.31;56.28
60417;BME280;46263;44.726;10.396;2023-06-14T11:13:06;99990.69;;;26.28;54.51
60417;BME280;46263;44.726;10.396;2023-06-14T11:15:32;99988.03;;;26.32;52.81
60417;BME280;46263;44.726;10.396;2023-06-14T11:18:06;99993.09;;;26.33;53.46
60417;BME280;46263;44.726;10.396;2023-06-14T11:20:33;99985.56;;;26.40;55.26
60417;BME280;46263;44.726;10.396;2023-06-14T11:23:00;99981.91;;;26.53;57.63
60417;BME280;46263;44.726;10.396;2023-06-14T11:25:26;99987.28;;;26.60;57.77
60417;BME280;46263;44.726;10.396;2023-06-14T11:27:54;99982.94;;;26.59;55.80
60417;BME280;46263;44.726;10.396;2023-06-14T11:30:21;99987.56;;;26.66;58.10
60417;BME280;46263;44.726;10.396;2023-06-14T11:32:47;99980.91;;;26.62;55.83
60417;BME280;46263;44.726;10.396;2023-06-14T11:35:13;99973.94;;;26.66;55.19
60417;BME280;46263;44.726;10.396;2023-06-14T11:37:39;99980.06;;;26.74;56.56
60417;BME280;46263;44.726;10.396;2023-06-14T11:40:06;99974.72;;;26.67;54.69
60417;BME280;46263;44.726;10.396;2023-06-14T11:42:36;99983.09;;;26.63;55.59
60417;BME280;46263;44.726;10.396;2023-06-14T11:45:03;99978.75;;;26.62;55.73
60417;BME280;46263;44.726;10.396;2023-06-14T11:47:33;99975.59;;;26.56;56.36
60417;BME280;46263;44.726;10.396;2023-06-14T11:50:00;99973.94;;;26.51;55.67
60417;BME280;46263;44.726;10.396;2023-06-14T11:52:25;99972.47;;;26.50;54.86
60417;BME280;46263;44.726;10.396;2023-06-14T11:54:51;99974.09;;;26.40;54.57
60417;BME280;46263;44.726;10.396;2023-06-14T11:57:18;99969.63;;;26.37;55.02
60417;BME280;46263;44.726;10.396;2023-06-14T11:59:44;99968.03;;;26.34;55.64
60417;BME280;46263;44.726;10.396;2023-06-14T12:02:13;99963.50;;;26.29;55.92
60417;BME280;46263;44.726;10.396;2023-06-14T12:04:41;99962.00;;;26.28;56.30
60417;BME280;46263;44.726;10.396;2023-06-14T12:07:14;99962.22;;;26.32;56.35
60417;BME280;46263;44.726;10.396;2023-06-14T12:12:25;99955.19;;;26.35;56.41
60417;BME280;46263;44.726;10.396;2023-06-14T12:14:51;99952.53;;;26.39;56.54
60417;BME280;46263;44.726;10.396;2023-06-14T12:17:18;99952.84;;;26.45;56.36
60417;BME280;46263;44.726;10.396;2023-06-14T12:19:45;99947.31;;;26.49;56.92
60417;BME280;46263;44.726;10.396;2023-06-14T12:22:11;99941.63;;;26.51;56.61
60417;BME280;46263;44.726;10.396;2023-06-14T12:24:37;99943.34;;;26.56;56.46
60417;BME280;46263;44.726;10.396;2023-06-14T12:27:03;99933.53;;;26.61;54.87
60417;BME280;46263;44.726;10.396;2023-06-14T12:29:30;99938.22;;;26.54;55.29
60417;BME280;46263;44.726;10.396;2023-06-14T12:31:55;99941.47;;;26.47;54.95
60417;BME280;46263;44.726;10.396;2023-06-14T12:34:25;99937.28;;;26.50;55.93
60417;BME280;46263;44.726;10.396;2023-06-14T12:36:52;99933.03;;;26.51;55.59
60417;BME280;46263;44.726;10.396;2023-06-14T12:39:18;99932.88;;;26.62;55.01
60417;BME280;46263;44.726;10.396;2023-06-14T12:41:44;99937.53;;;26.69;56.49
60417;BME280;46263;44.726;10.396;2023-06-14T12:44:10;99936.22;;;26.72;54.56
60417;BME280;46263;44.726;10.396;2023-06-14T12:46:36;99940.00;;;26.76;55.68
60417;BME280;46263;44.726;10.396;2023-06-14T12:49:02;99936.78;;;26.84;55.18
60417;BME280;46263;44.726;10.396;2023-06-14T12:51:28;99930.66;;;26.91;55.55
60417;BME280;46263;44.726;10.396;2023-06-14T12:53:53;99926.41;;;26.92;54.59
60417;BME280;46263;44.726;10.396;2023-06-14T12:56:19;99932.13;;;26.92;54.44
60417;BME280;46263;44.726;10.396;2023-06-14T12:58:45;99935.47;;;26.87;54.08
60417;BME280;46263;44.726;10.396;2023-06-14T13:01:10;99931.88;;;26.86;54.96
60417;BME280;46263;44.726;10.396;2023-06-14T13:03:36;99939.00;;;26.85;55.24